Bulverde, Texas
Current Conditions -  °F | °C
As of 3:51 AM on Wednesday 26 Nov 2014 (Local Time) from KSAT Reporting Station
Clear Clear  
Wind Chill: 42°   Ceiling: Unl
Heat Index: 45°   Visibility: 10mi
Dew Point: 33°   Wind: 6mph
Humidity: 63%   Direction: 230°SW
Pressure: 30.2"   Gusts: NA
Location:  29.74°N, 98.45°W
Report Text: KSAT 260951Z 23005KT 10SM CLR 07/01 A3020 RMK AO2 SLP216 T00720006
Loading
Personal Weather Stations






























Interactive Weather Map New forecast layout! Learn more

10-Day Weather Forecast

Advertisements
Track Severe Weather on mobile